sensor_id;sensor_type;location;lat;lon;timestamp;P1;durP1;ratioP1;P2;durP2;ratioP2
31754;SDS011;18325;52.018;4.726;2023-05-07T00:00:58;19.07;;;11.20;;
31754;SDS011;18325;52.018;4.726;2023-05-07T00:03:25;16.43;;;11.13;;
31754;SDS011;18325;52.018;4.726;2023-05-07T00:05:52;23.03;;;11.80;;
31754;SDS011;18325;52.018;4.726;2023-05-07T00:08:20;20.00;;;11.47;;
31754;SDS011;18325;52.018;4.726;2023-05-07T00:10:46;21.60;;;11.83;;
31754;SDS011;18325;52.018;4.726;2023-05-07T00:13:13;19.70;;;10.90;;
31754;SDS011;18325;52.018;4.726;2023-05-07T00:15:39;18.97;;;11.53;;
31754;SDS011;18325;52.018;4.726;2023-05-07T00:18:06;16.90;;;11.30;;
31754;SDS011;18325;52.018;4.726;2023-05-07T00:20:32;20.53;;;11.83;;
31754;SDS011;18325;52.018;4.726;2023-05-07T00:22:58;16.90;;;11.23;;
31754;SDS011;18325;52.018;4.726;2023-05-07T00:25:26;20.27;;;10.50;;
31754;SDS011;18325;52.018;4.726;2023-05-07T00:27:53;17.40;;;11.27;;
31754;SDS011;18325;52.018;4.726;2023-05-07T00:30:19;19.37;;;12.30;;
31754;SDS011;18325;52.018;4.726;2023-05-07T00:32:46;18.30;;;10.90;;
31754;SDS011;18325;52.018;4.726;2023-05-07T00:35:13;20.00;;;12.57;;
31754;SDS011;18325;52.018;4.726;2023-05-07T00:37:40;20.70;;;11.17;;
31754;SDS011;18325;52.018;4.726;2023-05-07T00:40:07;21.07;;;13.30;;
31754;SDS011;18325;52.018;4.726;2023-05-07T00:42:36;20.90;;;12.40;;
31754;SDS011;18325;52.018;4.726;2023-05-07T00:45:02;21.70;;;13.30;;
31754;SDS011;18325;52.018;4.726;2023-05-07T00:47:30;23.37;;;13.30;;
31754;SDS011;18325;52.018;4.726;2023-05-07T00:49:56;21.03;;;12.83;;
31754;SDS011;18325;52.018;4.726;2023-05-07T00:52:23;23.70;;;14.23;;
31754;SDS011;18325;52.018;4.726;2023-05-07T00:54:51;19.87;;;12.27;;
31754;SDS011;18325;52.018;4.726;2023-05-07T00:57:18;22.10;;;12.70;;
31754;SDS011;18325;52.018;4.726;2023-05-07T00:59:46;20.47;;;12.80;;
31754;SDS011;18325;52.018;4.726;2023-05-07T01:02:13;22.20;;;13.77;;
31754;SDS011;18325;52.018;4.726;2023-05-07T01:04:40;24.07;;;14.17;;
31754;SDS011;18325;52.018;4.726;2023-05-07T01:07:06;25.30;;;13.47;;
31754;SDS011;18325;52.018;4.726;2023-05-07T01:09:33;23.73;;;13.70;;
31754;SDS011;18325;52.018;4.726;2023-05-07T01:12:01;22.07;;;13.13;;
31754;SDS011;18325;52.018;4.726;2023-05-07T01:14:27;22.63;;;13.83;;
31754;SDS011;18325;52.018;4.726;2023-05-07T01:16:56;23.23;;;14.70;;
31754;SDS011;18325;52.018;4.726;2023-05-07T01:19:23;21.20;;;14.07;;
31754;SDS011;18325;52.018;4.726;2023-05-07T01:21:50;25.40;;;13.80;;
31754;SDS011;18325;52.018;4.726;2023-05-07T01:24:18;22.43;;;13.73;;
31754;SDS011;18325;52.018;4.726;2023-05-07T01:26:45;21.53;;;13.63;;
31754;SDS011;18325;52.018;4.726;2023-05-07T01:29:11;23.13;;;14.47;;
31754;SDS011;18325;52.018;4.726;2023-05-07T01:31:37;21.97;;;14.07;;
31754;SDS011;18325;52.018;4.726;2023-05-07T01:34:04;21.20;;;14.63;;
31754;SDS011;18325;52.018;4.726;2023-05-07T01:36:33;23.30;;;13.70;;
31754;SDS011;18325;52.018;4.726;2023-05-07T01:39:00;25.47;;;14.80;;
31754;SDS011;18325;52.018;4.726;2023-05-07T01:41:29;19.70;;;13.40;;
31754;SDS011;18325;52.018;4.726;2023-05-07T01:43:55;22.13;;;14.73;;
31754;SDS011;18325;52.018;4.726;2023-05-07T01:46:22;21.43;;;13.23;;
31754;SDS011;18325;52.018;4.726;2023-05-07T01:48:49;19.60;;;13.93;;
31754;SDS011;18325;52.018;4.726;2023-05-07T01:51:16;22.53;;;13.83;;
31754;SDS011;18325;52.018;4.726;2023-05-07T01:53:42;19.50;;;12.97;;
31754;SDS011;18325;52.018;4.726;2023-05-07T01:56:10;21.77;;;12.97;;
31754;SDS011;18325;52.018;4.726;2023-05-07T01:58:38;20.47;;;13.33;;
31754;SDS011;18325;52.018;4.726;2023-05-07T02:01:04;16.60;;;11.83;;
31754;SDS011;18325;52.018;4.726;2023-05-07T02:03:31;18.30;;;13.20;;
31754;SDS011;18325;52.018;4.726;2023-05-07T02:05:57;17.30;;;12.53;;
31754;SDS011;18325;52.018;4.726;2023-05-07T02:08:23;18.23;;;12.43;;
31754;SDS011;18325;52.018;4.726;2023-05-07T02:10:50;17.30;;;13.03;;
31754;SDS011;18325;52.018;4.726;2023-05-07T02:13:16;16.87;;;11.83;;
31754;SDS011;18325;52.018;4.726;2023-05-07T02:15:44;19.03;;;11.63;;
31754;SDS011;18325;52.018;4.726;2023-05-07T02:18:14;17.30;;;11.83;;
31754;SDS011;18325;52.018;4.726;2023-05-07T02:20:41;15.70;;;11.43;;
31754;SDS011;18325;52.018;4.726;2023-05-07T02:23:08;16.37;;;10.93;;
31754;SDS011;18325;52.018;4.726;2023-05-07T02:25:34;17.27;;;11.17;;
31754;SDS011;18325;52.018;4.726;2023-05-07T02:28:01;17.90;;;11.57;;
31754;SDS011;18325;52.018;4.726;2023-05-07T02:30:27;15.57;;;11.10;;
31754;SDS011;18325;52.018;4.726;2023-05-07T02:32:55;14.27;;;10.20;;
31754;SDS011;18325;52.018;4.726;2023-05-07T02:35:22;14.80;;;11.00;;
31754;SDS011;18325;52.018;4.726;2023-05-07T02:37:50;14.63;;;10.57;;
31754;SDS011;18325;52.018;4.726;2023-05-07T02:40:16;13.50;;;9.97;;
31754;SDS011;18325;52.018;4.726;2023-05-07T02:42:42;12.77;;;9.80;;
31754;SDS011;18325;52.018;4.726;2023-05-07T02:45:09;12.73;;;9.80;;
31754;SDS011;18325;52.018;4.726;2023-05-07T02:47:36;14.27;;;9.20;;
31754;SDS011;18325;52.018;4.726;2023-05-07T02:50:04;12.07;;;9.00;;
31754;SDS011;18325;52.018;4.726;2023-05-07T02:52:32;14.37;;;9.40;;
31754;SDS011;18325;52.018;4.726;2023-05-07T02:54:58;12.63;;;9.50;;
31754;SDS011;18325;52.018;4.726;2023-05-07T02:57:24;12.33;;;9.73;;
31754;SDS011;18325;52.018;4.726;2023-05-07T02:59:51;10.67;;;9.03;;
31754;SDS011;18325;52.018;4.726;2023-05-07T03:02:17;13.47;;;9.77;;
31754;SDS011;18325;52.018;4.726;2023-05-07T03:04:44;12.37;;;9.30;;
31754;SDS011;18325;52.018;4.726;2023-05-07T03:07:11;13.77;;;9.40;;
31754;SDS011;18325;52.018;4.726;2023-05-07T03:09:38;11.37;;;8.27;;
31754;SDS011;18325;52.018;4.726;2023-05-07T03:12:04;11.70;;;8.63;;
31754;SDS011;18325;52.018;4.726;2023-05-07T03:14:31;11.30;;;8.83;;
31754;SDS011;18325;52.018;4.726;2023-05-07T03:16:57;14.33;;;9.50;;
31754;SDS011;18325;52.018;4.726;2023-05-07T03:19:23;13.87;;;9.40;;
31754;SDS011;18325;52.018;4.726;2023-05-07T03:21:50;11.63;;;8.97;;
31754;SDS011;18325;52.018;4.726;2023-05-07T03:24:18;9.10;;;7.60;;
31754;SDS011;18325;52.018;4.726;2023-05-07T03:26:44;11.70;;;8.73;;
31754;SDS011;18325;52.018;4.726;2023-05-07T03:29:11;11.60;;;8.63;;
31754;SDS011;18325;52.018;4.726;2023-05-07T03:31:37;12.37;;;8.97;;
31754;SDS011;18325;52.018;4.726;2023-05-07T03:34:03;10.80;;;9.47;;
31754;SDS011;18325;52.018;4.726;2023-05-07T03:36:30;10.50;;;9.13;;
31754;SDS011;18325;52.018;4.726;2023-05-07T03:38:56;11.97;;;9.70;;
31754;SDS011;18325;52.018;4.726;2023-05-07T03:41:24;12.57;;;9.97;;
31754;SDS011;18325;52.018;4.726;2023-05-07T03:43:51;13.03;;;9.57;;
31754;SDS011;18325;52.018;4.726;2023-05-07T03:46:18;13.50;;;9.73;;
31754;SDS011;18325;52.018;4.726;2023-05-07T03:48:44;12.30;;;9.73;;
31754;SDS011;18325;52.018;4.726;2023-05-07T03:51:10;15.80;;;9.27;;
31754;SDS011;18325;52.018;4.726;2023-05-07T03:53:37;11.47;;;8.63;;
31754;SDS011;18325;52.018;4.726;2023-05-07T03:56:03;11.47;;;9.10;;
31754;SDS011;18325;52.018;4.726;2023-05-07T03:58:31;13.77;;;9.17;;
31754;SDS011;18325;52.018;4.726;2023-05-07T04:00:57;11.60;;;9.17;;
31754;SDS011;18325;52.018;4.726;2023-05-07T04:03:24;9.87;;;8.63;;
31754;SDS011;18325;52.018;4.726;2023-05-07T04:05:50;9.90;;;8.33;;
31754;SDS011;18325;52.018;4.726;2023-05-07T04:08:17;12.27;;;9.33;;
31754;SDS011;18325;52.018;4.726;2023-05-07T04:10:43;13.83;;;9.57;;
31754;SDS011;18325;52.018;4.726;2023-05-07T04:13:10;10.67;;;8.97;;
31754;SDS011;18325;52.018;4.726;2023-05-07T04:15:37;10.00;;;8.70;;
31754;SDS011;18325;52.018;4.726;2023-05-07T04:18:04;11.60;;;8.73;;
31754;SDS011;18325;52.018;4.726;2023-05-07T04:20:30;10.17;;;8.33;;
31754;SDS011;18325;52.018;4.726;2023-05-07T04:22:57;13.00;;;8.53;;
31754;SDS011;18325;52.018;4.726;2023-05-07T04:25:23;13.30;;;9.70;;
31754;SDS011;18325;52.018;4.726;2023-05-07T04:27:51;9.90;;;8.33;;
31754;SDS011;18325;52.018;4.726;2023-05-07T04:30:17;11.83;;;9.47;;
31754;SDS011;18325;52.018;4.726;2023-05-07T04:32:45;11.47;;;8.83;;
31754;SDS011;18325;52.018;4.726;2023-05-07T04:35:13;13.80;;;9.17;;
31754;SDS011;18325;52.018;4.726;2023-05-07T04:37:39;14.80;;;9.10;;
31754;SDS011;18325;52.018;4.726;2023-05-07T04:40:06;10.03;;;8.97;;
31754;SDS011;18325;52.018;4.726;2023-05-07T04:42:33;10.73;;;9.20;;
31754;SDS011;18325;52.018;4.726;2023-05-07T04:45:00;12.03;;;8.33;;
31754;SDS011;18325;52.018;4.726;2023-05-07T04:47:27;13.70;;;8.83;;
31754;SDS011;18325;52.018;4.726;2023-05-07T04:49:55;11.43;;;8.43;;
31754;SDS011;18325;52.018;4.726;2023-05-07T04:52:21;11.80;;;8.70;;
31754;SDS011;18325;52.018;4.726;2023-05-07T04:54:48;11.53;;;8.43;;
31754;SDS011;18325;52.018;4.726;2023-05-07T04:57:14;11.60;;;8.97;;
31754;SDS011;18325;52.018;4.726;2023-05-07T04:59:42;13.23;;;9.00;;
31754;SDS011;18325;52.018;4.726;2023-05-07T05:02:08;12.60;;;8.93;;
31754;SDS011;18325;52.018;4.726;2023-05-07T05:04:36;13.37;;;9.33;;
31754;SDS011;18325;52.018;4.726;2023-05-07T05:07:04;11.33;;;8.33;;
31754;SDS011;18325;52.018;4.726;2023-05-07T05:09:30;13.07;;;9.07;;
31754;SDS011;18325;52.018;4.726;2023-05-07T05:11:57;11.07;;;8.77;;
31754;SDS011;18325;52.018;4.726;2023-05-07T05:14:23;11.77;;;9.10;;
31754;SDS011;18325;52.018;4.726;2023-05-07T05:16:50;13.00;;;8.93;;
31754;SDS011;18325;52.018;4.726;2023-05-07T05:19:16;11.20;;;8.50;;
31754;SDS011;18325;52.018;4.726;2023-05-07T05:21:42;16.33;;;9.73;;
31754;SDS011;18325;52.018;4.726;2023-05-07T05:24:10;13.30;;;8.53;;
31754;SDS011;18325;52.018;4.726;2023-05-07T05:26:36;12.53;;;9.23;;
31754;SDS011;18325;52.018;4.726;2023-05-07T05:29:03;12.93;;;9.00;;
31754;SDS011;18325;52.018;4.726;2023-05-07T05:31:29;11.83;;;8.87;;
31754;SDS011;18325;52.018;4.726;2023-05-07T05:33:56;12.20;;;9.10;;
31754;SDS011;18325;52.018;4.726;2023-05-07T05:36:22;16.23;;;9.97;;
31754;SDS011;18325;52.018;4.726;2023-05-07T05:38:48;14.00;;;9.03;;
31754;SDS011;18325;52.018;4.726;2023-05-07T05:41:16;16.20;;;11.33;;
31754;SDS011;18325;52.018;4.726;2023-05-07T05:43:43;14.27;;;10.30;;
31754;SDS011;18325;52.018;4.726;2023-05-07T05:46:09;15.77;;;10.30;;
31754;SDS011;18325;52.018;4.726;2023-05-07T05:48:37;13.80;;;10.43;;
31754;SDS011;18325;52.018;4.726;2023-05-07T05:51:04;19.70;;;11.00;;
31754;SDS011;18325;52.018;4.726;2023-05-07T05:53:30;16.10;;;11.10;;
31754;SDS011;18325;52.018;4.726;2023-05-07T05:55:56;16.87;;;11.67;;
31754;SDS011;18325;52.018;4.726;2023-05-07T05:58:24;16.27;;;10.60;;
31754;SDS011;18325;52.018;4.726;2023-05-07T06:00:51;14.97;;;11.20;;
31754;SDS011;18325;52.018;4.726;2023-05-07T06:03:18;18.43;;;11.13;;
31754;SDS011;18325;52.018;4.726;2023-05-07T06:05:44;15.30;;;11.03;;
31754;SDS011;18325;52.018;4.726;2023-05-07T06:08:11;18.50;;;11.90;;
31754;SDS011;18325;52.018;4.726;2023-05-07T06:10:37;20.57;;;12.67;;
31754;SDS011;18325;52.018;4.726;2023-05-07T06:13:04;16.87;;;11.80;;
31754;SDS011;18325;52.018;4.726;2023-05-07T06:15:32;18.77;;;12.40;;
31754;SDS011;18325;52.018;4.726;2023-05-07T06:17:58;18.30;;;12.50;;
31754;SDS011;18325;52.018;4.726;2023-05-07T06:20:25;18.57;;;12.47;;
31754;SDS011;18325;52.018;4.726;2023-05-07T06:22:51;18.43;;;12.60;;
31754;SDS011;18325;52.018;4.726;2023-05-07T06:25:17;21.80;;;12.97;;
31754;SDS011;18325;52.018;4.726;2023-05-07T06:27:44;19.07;;;13.47;;
31754;SDS011;18325;52.018;4.726;2023-05-07T06:30:10;17.43;;;12.33;;
31754;SDS011;18325;52.018;4.726;2023-05-07T06:32:39;19.73;;;13.37;;
31754;SDS011;18325;52.018;4.726;2023-05-07T06:35:06;22.47;;;13.13;;
31754;SDS011;18325;52.018;4.726;2023-05-07T06:37:33;21.33;;;13.63;;
31754;SDS011;18325;52.018;4.726;2023-05-07T06:40:00;20.27;;;14.53;;
31754;SDS011;18325;52.018;4.726;2023-05-07T06:42:26;21.27;;;14.63;;
31754;SDS011;18325;52.018;4.726;2023-05-07T06:44:53;21.50;;;13.53;;
31754;SDS011;18325;52.018;4.726;2023-05-07T06:47:20;22.07;;;14.57;;
31754;SDS011;18325;52.018;4.726;2023-05-07T06:49:47;28.03;;;17.37;;
31754;SDS011;18325;52.018;4.726;2023-05-07T06:52:14;20.73;;;14.37;;
31754;SDS011;18325;52.018;4.726;2023-05-07T06:54:40;20.40;;;14.13;;
31754;SDS011;18325;52.018;4.726;2023-05-07T06:57:07;22.57;;;14.10;;
31754;SDS011;18325;52.018;4.726;2023-05-07T06:59:33;24.70;;;14.63;;
31754;SDS011;18325;52.018;4.726;2023-05-07T07:02:00;22.50;;;13.10;;
31754;SDS011;18325;52.018;4.726;2023-05-07T07:04:26;22.47;;;13.70;;
31754;SDS011;18325;52.018;4.726;2023-05-07T07:06:55;22.07;;;14.00;;
31754;SDS011;18325;52.018;4.726;2023-05-07T07:09:22;20.47;;;14.10;;
31754;SDS011;18325;52.018;4.726;2023-05-07T07:11:49;22.03;;;14.70;;
31754;SDS011;18325;52.018;4.726;2023-05-07T07:14:15;19.97;;;13.80;;
31754;SDS011;18325;52.018;4.726;2023-05-07T07:16:42;17.60;;;13.70;;
31754;SDS011;18325;52.018;4.726;2023-05-07T07:19:08;27.13;;;15.30;;
31754;SDS011;18325;52.018;4.726;2023-05-07T07:21:34;22.57;;;14.53;;
31754;SDS011;18325;52.018;4.726;2023-05-07T07:24:02;22.87;;;14.87;;
31754;SDS011;18325;52.018;4.726;2023-05-07T07:26:29;25.53;;;15.47;;
31754;SDS011;18325;52.018;4.726;2023-05-07T07:28:56;24.13;;;15.17;;
31754;SDS011;18325;52.018;4.726;2023-05-07T07:31:22;22.97;;;15.20;;
31754;SDS011;18325;52.018;4.726;2023-05-07T07:33:49;24.43;;;15.83;;
31754;SDS011;18325;52.018;4.726;2023-05-07T07:36:15;26.27;;;17.20;;
31754;SDS011;18325;52.018;4.726;2023-05-07T07:38:42;24.03;;;16.60;;
31754;SDS011;18325;52.018;4.726;2023-05-07T07:41:09;27.93;;;17.20;;
31754;SDS011;18325;52.018;4.726;2023-05-07T07:43:36;24.00;;;16.57;;
31754;SDS011;18325;52.018;4.726;2023-05-07T07:46:02;25.77;;;17.00;;
31754;SDS011;18325;52.018;4.726;2023-05-07T07:48:29;29.00;;;16.93;;
31754;SDS011;18325;52.018;4.726;2023-05-07T07:50:56;26.67;;;18.67;;
31754;SDS011;18325;52.018;4.726;2023-05-07T07:53:22;24.97;;;16.77;;
31754;SDS011;18325;52.018;4.726;2023-05-07T07:55:49;25.63;;;17.07;;
31754;SDS011;18325;52.018;4.726;2023-05-07T07:58:17;35.37;;;23.60;;
31754;SDS011;18325;52.018;4.726;2023-05-07T08:00:43;27.33;;;17.17;;
31754;SDS011;18325;52.018;4.726;2023-05-07T08:03:10;27.20;;;17.97;;
31754;SDS011;18325;52.018;4.726;2023-05-07T08:05:36;25.03;;;18.30;;
31754;SDS011;18325;52.018;4.726;2023-05-07T08:08:03;26.13;;;16.27;;
31754;SDS011;18325;52.018;4.726;2023-05-07T08:10:30;23.53;;;16.57;;
31754;SDS011;18325;52.018;4.726;2023-05-07T08:12:59;26.97;;;16.10;;
31754;SDS011;18325;52.018;4.726;2023-05-07T08:15:27;23.37;;;15.87;;
31754;SDS011;18325;52.018;4.726;2023-05-07T08:17:53;23.38;;;16.08;;
31754;SDS011;18325;52.018;4.726;2023-05-07T08:20:22;24.65;;;16.10;;
31754;SDS011;18325;52.018;4.726;2023-05-07T08:22:48;21.98;;;15.77;;
31754;SDS011;18325;52.018;4.726;2023-05-07T08:25:15;21.20;;;13.43;;
31754;SDS011;18325;52.018;4.726;2023-05-07T08:27:41;20.27;;;13.75;;
31754;SDS011;18325;52.018;4.726;2023-05-07T08:30:09;20.67;;;13.13;;
31754;SDS011;18325;52.018;4.726;2023-05-07T08:32:38;17.60;;;12.77;;
31754;SDS011;18325;52.018;4.726;2023-05-07T08:35:05;14.68;;;10.93;;
31754;SDS011;18325;52.018;4.726;2023-05-07T08:37:31;16.92;;;11.43;;
31754;SDS011;18325;52.018;4.726;2023-05-07T08:39:58;13.35;;;9.52;;
31754;SDS011;18325;52.018;4.726;2023-05-07T08:42:25;12.50;;;9.43;;
31754;SDS011;18325;52.018;4.726;2023-05-07T08:44:52;13.90;;;9.75;;
31754;SDS011;18325;52.018;4.726;2023-05-07T08:47:24;14.23;;;9.90;;
31754;SDS011;18325;52.018;4.726;2023-05-07T08:49:56;14.95;;;9.95;;
31754;SDS011;18325;52.018;4.726;2023-05-07T08:52:22;14.40;;;10.10;;
31754;SDS011;18325;52.018;4.726;2023-05-07T08:54:49;13.65;;;9.80;;
31754;SDS011;18325;52.018;4.726;2023-05-07T08:57:15;11.40;;;8.77;;
31754;SDS011;18325;52.018;4.726;2023-05-07T08:59:41;20.55;;;11.32;;
31754;SDS011;18325;52.018;4.726;2023-05-07T09:02:08;13.82;;;9.70;;
31754;SDS011;18325;52.018;4.726;2023-05-07T09:04:35;11.48;;;8.27;;
31754;SDS011;18325;52.018;4.726;2023-05-07T09:07:03;12.05;;;8.05;;
31754;SDS011;18325;52.018;4.726;2023-05-07T09:09:31;10.68;;;8.50;;
31754;SDS011;18325;52.018;4.726;2023-05-07T09:11:58;13.63;;;8.30;;
31754;SDS011;18325;52.018;4.726;2023-05-07T09:14:24;13.15;;;8.73;;
31754;SDS011;18325;52.018;4.726;2023-05-07T09:16:51;11.63;;;8.50;;
31754;SDS011;18325;52.018;4.726;2023-05-07T09:19:21;13.60;;;7.57;;
31754;SDS011;18325;52.018;4.726;2023-05-07T09:21:48;11.73;;;7.95;;
31754;SDS011;18325;52.018;4.726;2023-05-07T09:24:16;12.15;;;7.72;;
31754;SDS011;18325;52.018;4.726;2023-05-07T09:26:42;8.77;;;6.40;;
31754;SDS011;18325;52.018;4.726;2023-05-07T09:29:09;8.80;;;5.10;;
31754;SDS011;18325;52.018;4.726;2023-05-07T09:31:36;9.20;;;5.97;;
31754;SDS011;18325;52.018;4.726;2023-05-07T09:34:04;10.30;;;5.55;;
31754;SDS011;18325;52.018;4.726;2023-05-07T09:36:31;9.25;;;6.45;;
31754;SDS011;18325;52.018;4.726;2023-05-07T09:38:59;11.63;;;6.70;;
31754;SDS011;18325;52.018;4.726;2023-05-07T09:41:26;8.48;;;5.32;;
31754;SDS011;18325;52.018;4.726;2023-05-07T09:43:54;8.18;;;4.68;;
31754;SDS011;18325;52.018;4.726;2023-05-07T09:46:21;7.03;;;3.90;;
31754;SDS011;18325;52.018;4.726;2023-05-07T09:48:51;4.90;;;3.25;;
31754;SDS011;18325;52.018;4.726;2023-05-07T09:51:21;6.72;;;4.53;;
31754;SDS011;18325;52.018;4.726;2023-05-07T09:53:48;9.13;;;4.75;;
31754;SDS011;18325;52.018;4.726;2023-05-07T09:56:16;9.07;;;5.32;;
31754;SDS011;18325;52.018;4.726;2023-05-07T09:58:45;10.90;;;6.57;;
31754;SDS011;18325;52.018;4.726;2023-05-07T10:01:13;7.72;;;5.72;;
31754;SDS011;18325;52.018;4.726;2023-05-07T10:03:40;7.60;;;5.28;;
31754;SDS011;18325;52.018;4.726;2023-05-07T10:06:08;8.23;;;5.20;;
31754;SDS011;18325;52.018;4.726;2023-05-07T10:08:35;9.45;;;5.57;;
31754;SDS011;18325;52.018;4.726;2023-05-07T10:11:02;10.07;;;5.85;;
31754;SDS011;18325;52.018;4.726;2023-05-07T10:13:29;7.93;;;5.55;;
31754;SDS011;18325;52.018;4.726;2023-05-07T10:15:57;7.45;;;4.70;;
31754;SDS011;18325;52.018;4.726;2023-05-07T10:18:24;9.70;;;5.07;;
31754;SDS011;18325;52.018;4.726;2023-05-07T10:20:54;6.28;;;4.25;;
31754;SDS011;18325;52.018;4.726;2023-05-07T10:23:27;8.10;;;4.30;;
31754;SDS011;18325;52.018;4.726;2023-05-07T10:25:54;5.40;;;3.53;;
31754;SDS011;18325;52.018;4.726;2023-05-07T10:28:22;6.22;;;3.45;;
31754;SDS011;18325;52.018;4.726;2023-05-07T10:30:54;12.80;;;3.92;;
31754;SDS011;18325;52.018;4.726;2023-05-07T10:33:28;9.77;;;4.28;;
31754;SDS011;18325;52.018;4.726;2023-05-07T10:35:55;8.10;;;4.35;;
31754;SDS011;18325;52.018;4.726;2023-05-07T10:38:24;7.07;;;4.75;;
31754;SDS011;18325;52.018;4.726;2023-05-07T10:40:51;9.65;;;5.78;;
31754;SDS011;18325;52.018;4.726;2023-05-07T10:43:17;9.10;;;5.25;;
31754;SDS011;18325;52.018;4.726;2023-05-07T10:45:45;5.60;;;4.03;;
31754;SDS011;18325;52.018;4.726;2023-05-07T10:51:40;6.47;;;4.40;;
31754;SDS011;18325;52.018;4.726;2023-05-07T10:54:19;8.43;;;4.63;;
31754;SDS011;18325;52.018;4.726;2023-05-07T10:56:46;8.60;;;4.47;;
31754;SDS011;18325;52.018;4.726;2023-05-07T10:59:34;7.43;;;3.90;;
31754;SDS011;18325;52.018;4.726;2023-05-07T11:02:06;10.02;;;5.30;;
31754;SDS011;18325;52.018;4.726;2023-05-07T11:04:36;6.82;;;5.25;;
31754;SDS011;18325;52.018;4.726;2023-05-07T11:09:58;7.68;;;5.05;;
31754;SDS011;18325;52.018;4.726;2023-05-07T11:12:50;7.10;;;5.80;;
31754;SDS011;18325;52.018;4.726;2023-05-07T11:18:02;11.18;;;5.53;;
31754;SDS011;18325;52.018;4.726;2023-05-07T11:26:25;7.22;;;4.18;;
31754;SDS011;18325;52.018;4.726;2023-05-07T11:28:52;13.23;;;3.75;;
31754;SDS011;18325;52.018;4.726;2023-05-07T11:31:23;4.68;;;3.35;;
31754;SDS011;18325;52.018;4.726;2023-05-07T11:33:51;7.25;;;3.60;;
31754;SDS011;18325;52.018;4.726;2023-05-07T11:36:19;6.43;;;4.05;;
31754;SDS011;18325;52.018;4.726;2023-05-07T11:38:46;5.32;;;4.15;;
31754;SDS011;18325;52.018;4.726;2023-05-07T11:41:13;8.63;;;4.90;;
31754;SDS011;18325;52.018;4.726;2023-05-07T11:43:53;6.30;;;4.35;;
31754;SDS011;18325;52.018;4.726;2023-05-07T11:46:21;6.55;;;3.90;;
31754;SDS011;18325;52.018;4.726;2023-05-07T11:48:47;7.32;;;5.25;;
31754;SDS011;18325;52.018;4.726;2023-05-07T11:51:19;6.53;;;4.30;;
31754;SDS011;18325;52.018;4.726;2023-05-07T11:53:46;10.57;;;4.78;;
31754;SDS011;18325;52.018;4.726;2023-05-07T11:56:14;11.93;;;4.82;;
31754;SDS011;18325;52.018;4.726;2023-05-07T11:58:42;8.57;;;5.07;;
31754;SDS011;18325;52.018;4.726;2023-05-07T12:01:09;8.65;;;5.15;;
31754;SDS011;18325;52.018;4.726;2023-05-07T12:03:37;6.45;;;5.63;;
31754;SDS011;18325;52.018;4.726;2023-05-07T12:06:05;6.82;;;5.10;;
31754;SDS011;18325;52.018;4.726;2023-05-07T12:08:35;8.23;;;5.05;;
31754;SDS011;18325;52.018;4.726;2023-05-07T12:11:02;11.70;;;5.32;;
31754;SDS011;18325;52.018;4.726;2023-05-07T12:13:29;6.95;;;4.97;;
31754;SDS011;18325;52.018;4.726;2023-05-07T12:15:55;12.65;;;5.80;;
31754;SDS011;18325;52.018;4.726;2023-05-07T12:18:22;7.35;;;4.88;;
31754;SDS011;18325;52.018;4.726;2023-05-07T12:20:49;10.18;;;5.22;;
31754;SDS011;18325;52.018;4.726;2023-05-07T12:23:16;7.60;;;5.55;;
31754;SDS011;18325;52.018;4.726;2023-05-07T12:25:45;11.60;;;7.05;;
31754;SDS011;18325;52.018;4.726;2023-05-07T12:28:12;13.88;;;6.80;;
31754;SDS011;18325;52.018;4.726;2023-05-07T12:30:40;8.23;;;6.53;;
31754;SDS011;18325;52.018;4.726;2023-05-07T12:33:07;9.20;;;6.90;;
31754;SDS011;18325;52.018;4.726;2023-05-07T12:35:35;9.93;;;6.88;;
31754;SDS011;18325;52.018;4.726;2023-05-07T12:38:06;11.07;;;7.53;;
31754;SDS011;18325;52.018;4.726;2023-05-07T12:40:37;9.68;;;7.70;;
31754;SDS011;18325;52.018;4.726;2023-05-07T12:43:05;8.95;;;7.38;;
31754;SDS011;18325;52.018;4.726;2023-05-07T12:45:32;9.05;;;6.22;;
31754;SDS011;18325;52.018;4.726;2023-05-07T12:48:02;9.02;;;7.35;;
31754;SDS011;18325;52.018;4.726;2023-05-07T12:50:30;8.00;;;6.75;;
31754;SDS011;18325;52.018;4.726;2023-05-07T12:52:57;8.95;;;6.78;;
31754;SDS011;18325;52.018;4.726;2023-05-07T12:55:24;9.60;;;7.10;;
31754;SDS011;18325;52.018;4.726;2023-05-07T12:57:50;8.27;;;6.65;;
31754;SDS011;18325;52.018;4.726;2023-05-07T13:00:19;10.98;;;7.30;;
31754;SDS011;18325;52.018;4.726;2023-05-07T13:02:58;8.05;;;6.40;;
31754;SDS011;18325;52.018;4.726;2023-05-07T13:05:25;10.20;;;6.70;;
31754;SDS011;18325;52.018;4.726;2023-05-07T13:07:54;12.68;;;7.00;;
31754;SDS011;18325;52.018;4.726;2023-05-07T13:10:21;10.00;;;6.30;;
31754;SDS011;18325;52.018;4.726;2023-05-07T13:12:48;9.93;;;6.97;;
31754;SDS011;18325;52.018;4.726;2023-05-07T13:15:14;7.75;;;6.75;;
31754;SDS011;18325;52.018;4.726;2023-05-07T13:17:42;8.13;;;6.32;;
31754;SDS011;18325;52.018;4.726;2023-05-07T13:20:09;11.35;;;6.30;;
31754;SDS011;18325;52.018;4.726;2023-05-07T13:22:36;11.52;;;6.82;;
31754;SDS011;18325;52.018;4.726;2023-05-07T13:25:02;10.65;;;6.93;;
31754;SDS011;18325;52.018;4.726;2023-05-07T13:27:29;8.63;;;6.18;;
31754;SDS011;18325;52.018;4.726;2023-05-07T13:29:56;8.80;;;6.15;;
31754;SDS011;18325;52.018;4.726;2023-05-07T13:32:22;8.18;;;6.05;;
31754;SDS011;18325;52.018;4.726;2023-05-07T13:34:50;9.55;;;6.45;;
31754;SDS011;18325;52.018;4.726;2023-05-07T13:37:16;9.77;;;6.60;;
31754;SDS011;18325;52.018;4.726;2023-05-07T13:39:43;8.57;;;6.50;;
31754;SDS011;18325;52.018;4.726;2023-05-07T13:42:09;7.30;;;6.32;;
31754;SDS011;18325;52.018;4.726;2023-05-07T13:44:36;9.95;;;6.30;;
31754;SDS011;18325;52.018;4.726;2023-05-07T13:47:02;9.15;;;6.88;;
31754;SDS011;18325;52.018;4.726;2023-05-07T13:49:28;11.55;;;5.82;;
31754;SDS011;18325;52.018;4.726;2023-05-07T13:51:56;8.30;;;5.47;;
31754;SDS011;18325;52.018;4.726;2023-05-07T13:54:23;8.18;;;5.20;;
31754;SDS011;18325;52.018;4.726;2023-05-07T13:56:49;8.00;;;5.85;;
31754;SDS011;18325;52.018;4.726;2023-05-07T13:59:16;7.93;;;5.95;;
31754;SDS011;18325;52.018;4.726;2023-05-07T14:01:42;8.10;;;5.82;;
31754;SDS011;18325;52.018;4.726;2023-05-07T14:04:08;7.95;;;5.82;;
31754;SDS011;18325;52.018;4.726;2023-05-07T14:06:35;11.90;;;6.80;;
31754;SDS011;18325;52.018;4.726;2023-05-07T14:09:02;10.15;;;6.65;;
31754;SDS011;18325;52.018;4.726;2023-05-07T14:11:29;10.55;;;6.63;;
31754;SDS011;18325;52.018;4.726;2023-05-07T14:13:55;6.68;;;5.85;;
31754;SDS011;18325;52.018;4.726;2023-05-07T14:16:23;11.43;;;7.50;;
31754;SDS011;18325;52.018;4.726;2023-05-07T14:18:52;12.52;;;7.25;;
31754;SDS011;18325;52.018;4.726;2023-05-07T14:21:18;12.02;;;8.10;;
31754;SDS011;18325;52.018;4.726;2023-05-07T14:23:45;10.00;;;7.85;;
31754;SDS011;18325;52.018;4.726;2023-05-07T14:26:13;10.82;;;8.30;;
31754;SDS011;18325;52.018;4.726;2023-05-07T14:28:39;13.27;;;9.52;;
31754;SDS011;18325;52.018;4.726;2023-05-07T14:31:11;16.00;;;9.15;;
31754;SDS011;18325;52.018;4.726;2023-05-07T14:33:37;10.45;;;8.20;;
31754;SDS011;18325;52.018;4.726;2023-05-07T14:36:03;13.43;;;7.25;;
31754;SDS011;18325;52.018;4.726;2023-05-07T14:38:30;10.77;;;6.95;;
31754;SDS011;18325;52.018;4.726;2023-05-07T14:40:57;11.23;;;7.40;;
31754;SDS011;18325;52.018;4.726;2023-05-07T14:43:25;12.98;;;7.00;;
31754;SDS011;18325;52.018;4.726;2023-05-07T14:45:52;9.68;;;6.60;;
31754;SDS011;18325;52.018;4.726;2023-05-07T14:48:18;6.50;;;5.70;;